Check out our new BloomSky Weather System.

Active alerts


No alerts


Thunder radar  blitzortung!


Rain radar more information rain snow radar


Visit our other weather sites:

Template documentation
and downloads

And another site



Weather Underground History page Text

Daily Summary for October 6, 2017 Units:  English    Metric   Both
« Previous Day
Next Day »
Daily Weekly Monthly Yearly Custom
  High: Low: Average:
Temperature: 86.7 °F 66.0 °F 75.9 °F
Dew Point: 72.3 °F 65.5 °F 67.8 °F
Humidity: 99 % 51 % 78 %
Wind Speed: 7.0 mph 0.0 mph 1 mph
Wind Gust: 9.0 mph - -
Wind:- - SE
Pressure: 30.01 in 29.80 in -
Precipitation: 0.00 in    
Historical Graphs
 
 
Tabular Data for October 6, 2017
Time Temperature Dew Point Pressure Wind Wind Speed Wind Gust Humidity Rainfall Rate (Hourly)
00:03 70.2 °F 67.6 °F 30.01 in Calm     92 % 0.00 in
00:08 69.6 °F 67.3 °F 30.01 in Calm     92 % 0.00 in
00:13 69.6 °F 67.5 °F 30.01 in Calm     93 % 0.00 in
00:18 69.6 °F 67.5 °F 30.01 in Calm     93 % 0.00 in
00:23 69.3 °F 67.1 °F 30.01 in Calm     93 % 0.00 in
00:28 69.4 °F 67.6 °F 30.01 in Calm     94 % 0.00 in
00:33 69.4 °F 68.0 °F 30.01 in Calm     95 % 0.00 in
00:38 69.4 °F 68.0 °F 30.00 in Calm     95 % 0.00 in
00:43 69.4 °F 68.0 °F 30.00 in Calm     95 % 0.00 in
00:48 69.3 °F 67.8 °F 30.00 in Calm     95 % 0.00 in
00:53 69.3 °F 67.8 °F 30.00 in Calm     95 % 0.00 in
00:58 69.3 °F 67.8 °F 30.00 in Calm     95 % 0.00 in
01:03 69.1 °F 67.6 °F 30.00 in Calm     95 % 0.00 in
01:08 69.1 °F 67.8 °F 30.00 in Calm     96 % 0.00 in
01:13 68.9 °F 67.5 °F 30.00 in Calm     95 % 0.00 in
01:18 68.7 °F 67.5 °F 30.00 in Calm     96 % 0.00 in
01:23 68.7 °F 67.5 °F 30.00 in Calm     96 % 0.00 in
01:24 68.7 °F 67.5 °F 30.00 in Calm     96 % 0.00 in
01:29 68.7 °F 67.5 °F 30.00 in Calm     96 % 0.00 in
01:34 68.7 °F 67.5 °F 29.99 in Calm     96 % 0.00 in
01:39 68.7 °F 67.5 °F 29.99 in Calm     96 % 0.00 in
01:44 68.5 °F 67.3 °F 29.99 in Calm     96 % 0.00 in
01:49 68.5 °F 67.3 °F 29.99 in Calm     96 % 0.00 in
01:54 68.4 °F 67.1 °F 29.99 in Calm     96 % 0.00 in
01:59 68.2 °F 66.9 °F 29.99 in Calm     96 % 0.00 in
02:04 68.2 °F 66.9 °F 29.99 in Calm     96 % 0.00 in
02:05 68.2 °F 66.9 °F 29.99 in Calm     96 % 0.00 in
02:10 67.8 °F 66.9 °F 29.99 in Calm     97 % 0.00 in
02:15 67.8 °F 66.6 °F 29.99 in Calm     96 % 0.00 in
02:20 67.8 °F 66.9 °F 29.99 in Calm     97 % 0.00 in
02:25 68.0 °F 67.1 °F 29.98 in Calm     97 % 0.00 in
02:30 68.0 °F 67.1 °F 29.98 in Calm     97 % 0.00 in
02:35 67.8 °F 66.9 °F 29.98 in Calm     97 % 0.00 in
02:40 67.6 °F 66.7 °F 29.98 in Calm     97 % 0.00 in
02:45 67.6 °F 66.7 °F 29.98 in Calm     97 % 0.00 in
02:50 67.6 °F 66.7 °F 29.98 in Calm     97 % 0.00 in
02:54 67.6 °F 67.1 °F 29.98 in Calm     98 % 0.00 in
02:59 67.6 °F 67.1 °F 29.98 in East 1.0 mph   98 % 0.00 in
03:04 67.6 °F 67.1 °F 29.97 in Calm   1.0 mph 98 % 0.00 in
03:09 67.6 °F 67.1 °F 29.97 in Calm   1.0 mph 98 % 0.00 in
03:14 67.8 °F 67.3 °F 29.97 in Calm   1.0 mph 98 % 0.00 in
03:19 67.8 °F 67.3 °F 29.97 in Calm   1.0 mph 98 % 0.00 in
03:24 67.8 °F 66.9 °F 29.97 in Calm   1.0 mph 97 % 0.00 in
03:34 67.6 °F 67.1 °F 29.97 in Calm     98 % 0.00 in
03:39 67.6 °F 66.7 °F 29.97 in Calm     97 % 0.00 in
03:47 67.5 °F 66.6 °F 29.96 in Calm     97 % 0.00 in
03:51 67.3 °F 66.4 °F 29.96 in Calm     97 % 0.00 in
03:56 67.3 °F 66.7 °F 29.96 in Calm     98 % 0.00 in
04:02 67.1 °F 66.6 °F 29.96 in Calm     98 % 0.00 in
04:07 67.1 °F 66.6 °F 29.96 in Calm     98 % 0.00 in
04:12 66.9 °F 66.4 °F 29.96 in Calm   1.0 mph 98 % 0.00 in
04:17 67.1 °F 66.6 °F 29.96 in Calm   1.0 mph 98 % 0.00 in
04:27 67.1 °F 66.6 °F 29.96 in Calm   1.0 mph 98 % 0.00 in
04:32 67.1 °F 66.6 °F 29.96 in Calm   1.0 mph 98 % 0.00 in
04:37 67.1 °F 66.6 °F 29.96 in Calm   1.0 mph 98 % 0.00 in
04:42 67.1 °F 66.6 °F 29.96 in Calm   1.0 mph 98 % 0.00 in
04:47 67.1 °F 66.6 °F 29.96 in Calm   1.0 mph 98 % 0.00 in
04:52 67.3 °F 66.9 °F 29.96 in Calm   1.0 mph 99 % 0.00 in
04:57 67.1 °F 66.6 °F 29.96 in Calm   1.0 mph 98 % 0.00 in
05:02 66.9 °F 66.4 °F 29.96 in Calm   1.0 mph 98 % 0.00 in
05:07 66.9 °F 66.4 °F 29.96 in Calm     98 % 0.00 in
05:12 66.9 °F 66.6 °F 29.96 in Calm   1.0 mph 99 % 0.00 in
05:17 66.9 °F 66.6 °F 29.96 in Calm   1.0 mph 99 % 0.00 in
05:22 66.9 °F 66.6 °F 29.96 in Calm   1.0 mph 99 % 0.00 in
05:27 66.7 °F 66.2 °F 29.96 in Calm   1.0 mph 98 % 0.00 in
05:32 66.7 °F 66.2 °F 29.96 in Calm   1.0 mph 98 % 0.00 in
05:37 66.6 °F 66.0 °F 29.96 in Calm     98 % 0.00 in
05:42 66.4 °F 65.8 °F 29.96 in Calm     98 % 0.00 in
05:47 66.2 °F 65.7 °F 29.96 in Calm     98 % 0.00 in
05:52 66.2 °F 65.7 °F 29.96 in Calm     98 % 0.00 in
05:57 66.2 °F 65.7 °F 29.96 in Calm     98 % 0.00 in
06:02 66.2 °F 65.8 °F 29.97 in Calm     99 % 0.00 in
06:07 66.2 °F 65.8 °F 29.97 in Calm     99 % 0.00 in
06:17 66.0 °F 65.7 °F 29.96 in Calm     99 % 0.00 in
06:22 66.0 °F 65.7 °F 29.97 in Calm     99 % 0.00 in
06:27 66.0 °F 65.7 °F 29.97 in Calm   1.0 mph 99 % 0.00 in
06:32 66.0 °F 65.7 °F 29.97 in Calm   1.0 mph 99 % 0.00 in
06:37 66.0 °F 65.5 °F 29.97 in Calm   1.0 mph 98 % 0.00 in
06:47 66.2 °F 65.7 °F 29.97 in Calm   1.0 mph 98 % 0.00 in
06:52 66.2 °F 65.7 °F 29.97 in Calm   1.0 mph 98 % 0.00 in
06:57 66.0 °F 65.5 °F 29.97 in Calm   1.0 mph 98 % 0.00 in
07:02 66.0 °F 65.5 °F 29.97 in Calm     98 % 0.00 in
07:07 66.0 °F 65.5 °F 29.97 in Calm     98 % 0.00 in
07:12 66.0 °F 65.5 °F 29.97 in Calm     98 % 0.00 in
07:17 66.0 °F 65.5 °F 29.97 in Calm   1.0 mph 98 % 0.00 in
07:22 66.0 °F 65.5 °F 29.97 in Calm   1.0 mph 98 % 0.00 in
07:27 66.0 °F 65.5 °F 29.97 in Calm   1.0 mph 98 % 0.00 in
07:32 66.0 °F 65.5 °F 29.97 in Calm   1.0 mph 98 % 0.00 in
07:37 66.4 °F 65.8 °F 29.97 in Calm   1.0 mph 98 % 0.00 in
07:42 66.4 °F 65.5 °F 29.97 in Calm   1.0 mph 97 % 0.00 in
07:47 66.4 °F 65.5 °F 29.97 in Calm   1.0 mph 97 % 0.00 in
07:52 66.4 °F 65.5 °F 29.97 in Calm     97 % 0.00 in
07:57 66.6 °F 65.7 °F 29.98 in Calm     97 % 0.00 in
08:02 66.9 °F 66.0 °F 29.98 in NW 1.0 mph 1.0 mph 97 % 0.00 in
08:07 67.3 °F 66.4 °F 29.98 in Calm   2.0 mph 97 % 0.00 in
08:12 67.8 °F 66.9 °F 29.97 in Calm   2.0 mph 97 % 0.00 in
08:17 68.4 °F 67.1 °F 29.97 in Calm   2.0 mph 96 % 0.00 in
08:22 69.1 °F 67.6 °F 29.97 in Calm   2.0 mph 95 % 0.00 in
08:27 69.8 °F 68.4 °F 29.97 in Calm   2.0 mph 95 % 0.00 in
08:32 70.5 °F 68.7 °F 29.97 in Calm   1.0 mph 94 % 0.00 in
08:37 71.4 °F 68.9 °F 29.97 in ENE 2.0 mph 2.0 mph 92 % 0.00 in
08:42 72.3 °F 69.3 °F 29.98 in North 1.0 mph 2.0 mph 90 % 0.00 in
08:47 73.0 °F 68.9 °F 29.98 in NE 1.0 mph 2.0 mph 87 % 0.00 in
08:52 73.6 °F 69.1 °F 29.98 in Calm   2.0 mph 86 % 0.00 in
09:07 75.4 °F 69.4 °F 29.98 in Calm   2.0 mph 82 % 0.00 in
09:12 75.9 °F 70.3 °F 29.98 in Calm   3.0 mph 83 % 0.00 in
09:17 76.5 °F 70.2 °F 29.98 in Calm   3.0 mph 81 % 0.00 in
09:22 77.4 °F 70.7 °F 29.98 in SE 1.0 mph 3.0 mph 80 % 0.00 in
09:27 77.9 °F 70.2 °F 29.98 in East 1.0 mph 2.0 mph 77 % 0.00 in
09:32 78.1 °F 70.3 °F 29.98 in ENE 2.0 mph 3.0 mph 77 % 0.00 in
09:37 78.1 °F 70.3 °F 29.98 in NNW 2.0 mph 4.0 mph 77 % 0.00 in
09:42 78.3 °F 70.5 °F 29.98 in Calm   4.0 mph 77 % 0.00 in
09:47 78.6 °F 70.3 °F 29.98 in Calm   4.0 mph 76 % 0.00 in
09:52 79.3 °F 71.4 °F 29.98 in Calm   4.0 mph 77 % 0.00 in
09:57 80.4 °F 71.8 °F 29.98 in Calm   3.0 mph 75 % 0.00 in
10:02 81.3 °F 71.1 °F 29.98 in ESE 2.0 mph 3.0 mph 71 % 0.00 in
10:07 81.1 °F 70.0 °F 29.98 in Calm   3.0 mph 69 % 0.00 in
10:12 81.0 °F 70.7 °F 29.98 in ENE 2.0 mph 5.0 mph 71 % 0.00 in
10:17 81.1 °F 70.3 °F 29.98 in Calm   5.0 mph 70 % 0.00 in
10:22 81.3 °F 71.1 °F 29.98 in South 1.0 mph 5.0 mph 71 % 0.00 in
10:32 81.3 °F 70.5 °F 29.98 in East 2.0 mph 7.0 mph 70 % 0.00 in
10:37 81.3 °F 71.1 °F 29.98 in NNW 2.0 mph 7.0 mph 71 % 0.00 in
10:42 81.7 °F 70.9 °F 29.98 in SSE 4.0 mph 5.0 mph 70 % 0.00 in
10:47 81.9 °F 71.6 °F 29.98 in Calm   5.0 mph 71 % 0.00 in
10:52 82.8 °F 72.3 °F 29.97 in ENE 5.0 mph 5.0 mph 71 % 0.00 in
10:57 82.9 °F 71.8 °F 29.98 in ENE 3.0 mph 6.0 mph 69 % 0.00 in
11:02 82.8 °F 71.6 °F 29.97 in North 1.0 mph 6.0 mph 69 % 0.00 in
11:07 83.1 °F 72.0 °F 29.97 in ESE 1.0 mph 6.0 mph 69 % 0.00 in
11:12 83.5 °F 70.9 °F 29.97 in SE 2.0 mph 5.0 mph 66 % 0.00 in
11:17 83.5 °F 70.9 °F 29.97 in Calm   7.0 mph 66 % 0.00 in
11:22 83.8 °F 70.9 °F 29.97 in NE 5.0 mph 7.0 mph 65 % 0.00 in
11:27 83.7 °F 71.6 °F 29.97 in SSE 1.0 mph 7.0 mph 67 % 0.00 in
11:32 83.8 °F 70.9 °F 29.97 in SE 5.0 mph 6.0 mph 65 % 0.00 in
11:37 83.8 °F 71.8 °F 29.97 in SE 2.0 mph 8.0 mph 67 % 0.00 in
11:42 84.0 °F 69.6 °F 29.96 in ESE 3.0 mph 8.0 mph 62 % 0.00 in
11:43 84.0 °F 70.0 °F 29.97 in Calm   8.0 mph 63 % 0.00 in
11:48 84.2 °F 70.2 °F 29.96 in East 3.0 mph 8.0 mph 63 % 0.00 in
11:53 83.8 °F 69.4 °F 29.96 in ESE 1.0 mph 8.0 mph 62 % 0.00 in
11:58 84.0 °F 71.1 °F 29.96 in ESE 2.0 mph 8.0 mph 65 % 0.00 in
12:03 84.6 °F 71.1 °F 29.96 in ESE 5.0 mph 6.0 mph 64 % 0.00 in
12:08 84.6 °F 70.2 °F 29.96 in SE 2.0 mph 6.0 mph 62 % 0.00 in
12:13 84.9 °F 70.0 °F 29.96 in SE 3.0 mph 6.0 mph 61 % 0.00 in
12:18 85.6 °F 70.7 °F 29.95 in East 1.0 mph 6.0 mph 61 % 0.00 in
12:23 85.6 °F 71.6 °F 29.95 in ENE 2.0 mph 7.0 mph 63 % 0.00 in
12:28 85.6 °F 70.7 °F 29.95 in SE 2.0 mph 7.0 mph 61 % 0.00 in
12:33 85.6 °F 70.2 °F 29.95 in SE 3.0 mph 7.0 mph 60 % 0.00 in
12:38 85.5 °F 70.9 °F 29.94 in NNE 3.0 mph 5.0 mph 62 % 0.00 in
12:43 86.2 °F 70.2 °F 29.94 in ESE 4.0 mph 5.0 mph 59 % 0.00 in
12:48 86.5 °F 71.4 °F 29.94 in NNW 3.0 mph 6.0 mph 61 % 0.00 in
12:53 85.8 °F 70.9 °F 29.94 in North 2.0 mph 6.0 mph 61 % 0.00 in
12:58 84.9 °F 70.5 °F 29.94 in NE 2.0 mph 6.0 mph 62 % 0.00 in
13:03 84.6 °F 70.2 °F 29.93 in East 1.0 mph 6.0 mph 62 % 0.00 in
13:08 84.4 °F 70.0 °F 29.93 in Calm   6.0 mph 62 % 0.00 in
13:13 83.8 °F 69.4 °F 29.93 in NE 1.0 mph 6.0 mph 62 % 0.00 in
13:18 83.8 °F 70.0 °F 29.92 in NNW 1.0 mph 4.0 mph 63 % 0.00 in
13:28 83.5 °F 69.6 °F 29.91 in Calm   4.0 mph 63 % 0.00 in
13:33 83.5 °F 69.6 °F 29.91 in NNW 4.0 mph 4.0 mph 63 % 0.00 in
13:38 84.0 °F 70.0 °F 29.91 in East 2.0 mph 5.0 mph 63 % 0.00 in
13:43 85.1 °F 70.5 °F 29.91 in ENE 7.0 mph 7.0 mph 62 % 0.00 in
13:48 84.9 °F 68.9 °F 29.90 in NW 4.0 mph 8.0 mph 59 % 0.00 in
13:53 84.6 °F 69.1 °F 29.90 in NE 1.0 mph 8.0 mph 60 % 0.00 in
13:58 84.4 °F 69.4 °F 29.90 in SE 2.0 mph 8.0 mph 61 % 0.00 in
14:03 84.0 °F 68.2 °F 29.89 in NW 2.0 mph 7.0 mph 59 % 0.00 in
14:08 84.4 °F 68.5 °F 29.89 in NNW 1.0 mph 7.0 mph 59 % 0.00 in
14:13 84.4 °F 68.9 °F 29.89 in NE 7.0 mph 7.0 mph 60 % 0.00 in
14:18 84.0 °F 67.1 °F 29.88 in ENE 1.0 mph 7.0 mph 57 % 0.00 in
14:23 83.7 °F 67.8 °F 29.88 in Calm   7.0 mph 59 % 0.00 in
14:28 83.8 °F 67.5 °F 29.88 in NE 2.0 mph 7.0 mph 58 % 0.00 in
14:33 84.2 °F 68.7 °F 29.88 in NW 1.0 mph 8.0 mph 60 % 0.00 in
14:38 84.9 °F 69.4 °F 29.87 in NE 3.0 mph 8.0 mph 60 % 0.00 in
14:43 85.3 °F 68.4 °F 29.87 in North 2.0 mph 8.0 mph 57 % 0.00 in
14:48 85.5 °F 68.0 °F 29.87 in ESE 4.0 mph 7.0 mph 56 % 0.00 in
14:54 85.3 °F 66.7 °F 29.87 in NE 2.0 mph 8.0 mph 54 % 0.00 in
14:59 85.5 °F 67.5 °F 29.87 in North 3.0 mph 8.0 mph 55 % 0.00 in
15:04 85.6 °F 68.2 °F 29.86 in NE 4.0 mph 8.0 mph 56 % 0.00 in
15:05 85.6 °F 67.6 °F 29.86 in ENE 6.0 mph 7.0 mph 55 % 0.00 in
15:10 85.6 °F 67.1 °F 29.86 in NNW 2.0 mph 7.0 mph 54 % 0.00 in
15:15 86.2 °F 68.2 °F 29.86 in Calm   7.0 mph 55 % 0.00 in
15:20 86.7 °F 66.9 °F 29.86 in SE 3.0 mph 7.0 mph 52 % 0.00 in
15:25 86.7 °F 66.4 °F 29.85 in East 6.0 mph 9.0 mph 51 % 0.00 in
15:30 86.4 °F 67.3 °F 29.85 in SSE 6.0 mph 9.0 mph 53 % 0.00 in
15:35 86.4 °F 67.3 °F 29.85 in SE 5.0 mph 9.0 mph 53 % 0.00 in
15:40 86.4 °F 67.8 °F 29.85 in ESE 1.0 mph 7.0 mph 54 % 0.00 in
15:55 86.2 °F 66.6 °F 29.84 in North 2.0 mph 7.0 mph 52 % 0.00 in
16:00 86.2 °F 66.6 °F 29.84 in SE 4.0 mph 7.0 mph 52 % 0.00 in
16:05 86.2 °F 66.6 °F 29.84 in ENE 3.0 mph 7.0 mph 52 % 0.00 in
16:10 86.2 °F 67.1 °F 29.84 in ESE 5.0 mph 9.0 mph 53 % 0.00 in
16:15 86.2 °F 67.1 °F 29.84 in ESE 5.0 mph 9.0 mph 53 % 0.00 in
16:20 86.4 °F 67.3 °F 29.84 in East 3.0 mph 9.0 mph 53 % 0.00 in
16:25 86.4 °F 66.7 °F 29.84 in ENE 4.0 mph 7.0 mph 52 % 0.00 in
16:30 86.4 °F 66.7 °F 29.84 in Calm   7.0 mph 52 % 0.00 in
16:35 86.2 °F 67.1 °F 29.84 in East 5.0 mph 7.0 mph 53 % 0.00 in
16:40 86.2 °F 67.6 °F 29.84 in SE 5.0 mph 7.0 mph 54 % 0.00 in
16:41 86.2 °F 67.1 °F 29.84 in ESE 2.0 mph 7.0 mph 53 % 0.00 in
16:46 86.2 °F 67.1 °F 29.83 in ESE 2.0 mph 7.0 mph 53 % 0.00 in
16:51 86.0 °F 65.8 °F 29.83 in ESE 3.0 mph 9.0 mph 51 % 0.00 in
16:56 85.8 °F 65.7 °F 29.83 in SE 3.0 mph 9.0 mph 51 % 0.00 in
17:01 86.0 °F 66.4 °F 29.83 in SSE 3.0 mph 9.0 mph 52 % 0.00 in
17:06 85.8 °F 66.2 °F 29.83 in East 3.0 mph 8.0 mph 52 % 0.00 in
17:11 85.8 °F 66.7 °F 29.83 in ESE 1.0 mph 8.0 mph 53 % 0.00 in
17:16 85.6 °F 66.6 °F 29.83 in ESE 6.0 mph 8.0 mph 53 % 0.00 in
17:21 85.5 °F 66.9 °F 29.83 in SE 2.0 mph 6.0 mph 54 % 0.00 in
17:26 85.5 °F 66.4 °F 29.83 in East 5.0 mph 6.0 mph 53 % 0.00 in
17:31 85.3 °F 66.7 °F 29.83 in NE 1.0 mph 6.0 mph 54 % 0.00 in
17:36 85.1 °F 66.6 °F 29.82 in SSE 3.0 mph 6.0 mph 54 % 0.00 in
17:41 84.9 °F 66.9 °F 29.82 in ESE 1.0 mph 6.0 mph 55 % 0.00 in
17:46 84.7 °F 66.2 °F 29.82 in ENE 3.0 mph 5.0 mph 54 % 0.00 in
17:51 84.7 °F 66.2 °F 29.82 in ENE 2.0 mph 5.0 mph 54 % 0.00 in
18:01 84.6 °F 66.6 °F 29.82 in East 2.0 mph 4.0 mph 55 % 0.00 in
18:11 84.0 °F 66.6 °F 29.82 in ENE 1.0 mph 6.0 mph 56 % 0.00 in
18:16 83.8 °F 66.4 °F 29.82 in North 2.0 mph 6.0 mph 56 % 0.00 in
18:21 83.7 °F 66.7 °F 29.82 in ESE 2.0 mph 6.0 mph 57 % 0.00 in
18:26 83.7 °F 66.7 °F 29.82 in SE 1.0 mph 5.0 mph 57 % 0.00 in
18:31 83.5 °F 67.1 °F 29.82 in East 2.0 mph 5.0 mph 58 % 0.00 in
18:36 83.1 °F 66.7 °F 29.82 in SE 1.0 mph 5.0 mph 58 % 0.00 in
18:46 82.6 °F 66.7 °F 29.82 in Calm   4.0 mph 59 % 0.00 in
18:51 82.2 °F 66.4 °F 29.82 in Calm   4.0 mph 59 % 0.00 in
18:56 82.0 °F 66.7 °F 29.82 in Calm   3.0 mph 60 % 0.00 in
19:01 81.7 °F 66.4 °F 29.82 in Calm   2.0 mph 60 % 0.00 in
19:06 81.3 °F 66.6 °F 29.82 in Calm   1.0 mph 61 % 0.00 in
19:11 81.1 °F 66.9 °F 29.82 in Calm   1.0 mph 62 % 0.00 in
19:16 80.8 °F 66.6 °F 29.82 in ENE 1.0 mph 1.0 mph 62 % 0.00 in
19:21 80.4 °F 67.1 °F 29.81 in Calm   1.0 mph 64 % 0.00 in
19:26 80.1 °F 67.3 °F 29.81 in Calm   1.0 mph 65 % 0.00 in
19:31 79.7 °F 67.3 °F 29.82 in Calm   1.0 mph 66 % 0.00 in
19:36 79.3 °F 66.9 °F 29.82 in Calm   1.0 mph 66 % 0.00 in
19:41 79.0 °F 67.1 °F 29.82 in Calm   1.0 mph 67 % 0.00 in
19:46 78.8 °F 66.9 °F 29.82 in Calm   1.0 mph 67 % 0.00 in
19:51 78.6 °F 67.6 °F 29.82 in Calm   2.0 mph 69 % 0.00 in
19:56 78.4 °F 67.5 °F 29.82 in SE 1.0 mph 2.0 mph 69 % 0.00 in
20:01 78.3 °F 67.3 °F 29.82 in ESE 1.0 mph 2.0 mph 69 % 0.00 in
20:06 78.3 °F 67.6 °F 29.83 in Calm   1.0 mph 70 % 0.00 in
20:11 78.1 °F 67.8 °F 29.82 in Calm   1.0 mph 71 % 0.00 in
20:16 77.7 °F 67.6 °F 29.83 in Calm   1.0 mph 71 % 0.00 in
20:21 77.5 °F 67.8 °F 29.83 in Calm   1.0 mph 72 % 0.00 in
20:26 77.4 °F 68.0 °F 29.83 in Calm   1.0 mph 73 % 0.00 in
20:31 77.2 °F 67.8 °F 29.83 in Calm   2.0 mph 73 % 0.00 in
20:36 77.2 °F 68.2 °F 29.83 in Calm   2.0 mph 74 % 0.00 in
20:41 77.0 °F 68.0 °F 29.83 in Calm   2.0 mph 74 % 0.00 in
20:46 76.8 °F 68.4 °F 29.83 in Calm   2.0 mph 75 % 0.00 in
20:51 76.6 °F 68.2 °F 29.83 in ESE 1.0 mph 2.0 mph 75 % 0.00 in
20:56 76.5 °F 68.0 °F 29.83 in Calm   2.0 mph 75 % 0.00 in
21:01 76.3 °F 68.2 °F 29.83 in East 1.0 mph 2.0 mph 76 % 0.00 in
21:06 76.1 °F 68.0 °F 29.83 in Calm   1.0 mph 76 % 0.00 in
21:11 75.9 °F 68.2 °F 29.83 in Calm   1.0 mph 77 % 0.00 in
21:16 75.7 °F 68.0 °F 29.83 in ESE 1.0 mph 2.0 mph 77 % 0.00 in
21:21 75.7 °F 68.4 °F 29.83 in Calm   2.0 mph 78 % 0.00 in
21:31 75.0 °F 67.6 °F 29.82 in Calm   1.0 mph 78 % 0.00 in
21:36 74.7 °F 67.6 °F 29.82 in Calm   1.0 mph 79 % 0.00 in
21:41 74.1 °F 67.1 °F 29.82 in Calm   1.0 mph 79 % 0.00 in
21:46 73.8 °F 67.3 °F 29.82 in Calm   1.0 mph 80 % 0.00 in
21:51 73.2 °F 67.1 °F 29.82 in Calm   1.0 mph 81 % 0.00 in
21:56 72.9 °F 67.1 °F 29.82 in Calm     82 % 0.00 in
22:01 72.5 °F 67.1 °F 29.82 in Calm     83 % 0.00 in
22:06 72.3 °F 66.9 °F 29.81 in Calm     83 % 0.00 in
22:11 72.1 °F 66.4 °F 29.81 in Calm     82 % 0.00 in
22:16 71.8 °F 66.7 °F 29.81 in Calm     84 % 0.00 in
22:17 71.8 °F 66.7 °F 29.81 in Calm     84 % 0.00 in
22:21 71.4 °F 66.4 °F 29.81 in Calm     84 % 0.00 in
22:26 71.2 °F 66.9 °F 29.82 in Calm     86 % 0.00 in
22:31 71.2 °F 67.1 °F 29.81 in Calm     87 % 0.00 in
22:36 71.2 °F 67.5 °F 29.82 in Calm   1.0 mph 88 % 0.00 in
22:42 71.2 °F 67.1 °F 29.82 in Calm   1.0 mph 87 % 0.00 in
22:47 71.1 °F 67.3 °F 29.82 in Calm   1.0 mph 88 % 0.00 in
22:52 70.9 °F 67.1 °F 29.82 in Calm     88 % 0.00 in
22:57 70.9 °F 67.5 °F 29.81 in Calm     89 % 0.00 in
23:02 70.7 °F 67.3 °F 29.82 in Calm     89 % 0.00 in
23:07 70.5 °F 67.1 °F 29.82 in Calm     89 % 0.00 in
23:12 70.5 °F 67.5 °F 29.82 in Calm     90 % 0.00 in
23:17 70.3 °F 67.3 °F 29.82 in Calm     90 % 0.00 in
23:22 70.2 °F 67.1 °F 29.82 in Calm     90 % 0.00 in
23:27 70.0 °F 67.3 °F 29.81 in Calm     91 % 0.00 in
23:32 70.0 °F 67.3 °F 29.81 in Calm   1.0 mph 91 % 0.00 in
23:37 70.0 °F 67.3 °F 29.81 in Calm   1.0 mph 91 % 0.00 in
23:42 69.8 °F 67.1 °F 29.81 in Calm   1.0 mph 91 % 0.00 in
23:52 69.8 °F 67.3 °F 29.81 in Calm   1.0 mph 92 % 0.00 in
23:57 69.6 °F 67.3 °F 29.80 in Calm   1.0 mph 92 % 0.00 in
Spring, Texas: Villages of Bridgestone
Compliments of Weather Underground - 2.75 mb

Script developed by  Jim McMurry - jmcmurry@mwt.net Adapted for the template by  Wim van der Kuil - Leuven-Template.eu

You find our weather info also at:

UK Metoffice

WeatherCloud

Weather Underground

Mid-South Weather Network

AWEKAS

Citizen Weather Observer Program (CWOP)

HAMweather, WeatherForYou, PWS Weather

Equipment we use:

Weather-station
Davis Vantage Vue

Weather-program
Meteohub

Weather-server
Debian 7.9 x86 (Guest)

Provider
DreamHost

Davis Vantage Vue

Meteohub

Debian 7.9 x86 (Guest)

DreamHost